Time;durP1;ratioP1;P1;durP2;ratioP2;P2;SDS_P1;SDS_P2;PMS_P1;PMS_P2;Temp;Humidity;BMP_temperature;BMP_pressure;BME280_temperature;BME280_humidity;BME280_pressure;Samples;Min_cycle;Max_cycle;Signal;HPM_P1;HPM_P2
2021/11/04 00:00:33;;;;;;;26.02;15.50;;;;;;;7.61;81.52;98093.78;4336312;79;21071;-83
2021/11/04 00:06:55;;;;;;;33.60;16.82;;;;;;;7.66;82.02;98098.86;4300100;81;21033;-82
2021/11/04 00:12:53;;;;;;;28.55;16.00;;;;;;;7.65;82.48;98089.92;4252232;81;21541;-83
2021/11/04 00:19:04;;;;;;;29.85;16.57;;;;;;;7.61;82.61;98078.80;4280003;81;21079;-83
2021/11/04 00:25:08;;;;;;;25.32;14.73;;;;;;;7.56;82.70;98066.29;4248808;81;21058;-84
2021/11/04 00:31:11;;;;;;;26.52;16.40;;;;;;;7.55;82.94;98046.24;4325324;80;20959;-83
2021/11/04 00:37:13;;;;;;;24.50;14.47;;;;;;;7.49;83.00;98034.93;4306149;80;21027;-82
2021/11/04 00:43:20;;;;;;;22.17;12.78;;;;;;;7.44;83.01;98034.48;4290616;80;21092;-83
2021/11/04 00:49:28;;;;;;;26.17;15.48;;;;;;;7.43;83.58;98050.06;4268486;81;21023;-81
2021/11/04 00:55:30;;;;;;;29.52;18.12;;;;;;;7.36;83.48;98033.64;4269941;80;21033;-83
2021/11/04 01:01:47;;;;;;;25.97;14.43;;;;;;;7.33;84.01;98007.18;4269074;81;21056;-82
2021/11/04 01:07:52;;;;;;;20.02;12.93;;;;;;;7.27;84.24;98001.09;4280000;81;21580;-83
2021/11/04 01:14:05;;;;;;;22.50;14.45;;;;;;;7.27;84.35;98002.45;4286924;81;21042;-82
2021/11/04 01:20:08;;;;;;;20.65;13.80;;;;;;;7.19;84.35;97997.53;4277601;80;21086;-83
2021/11/04 01:26:09;;;;;;;22.00;15.10;;;;;;;7.12;84.33;97985.24;4271809;81;21010;-83
2021/11/04 01:32:11;;;;;;;29.77;15.58;;;;;;;6.92;84.66;97966.19;4260684;81;21105;-83
2021/11/04 01:38:12;;;;;;;21.52;14.15;;;;;;;6.86;84.76;97963.61;4268776;81;21106;-84
2021/11/04 01:44:13;;;;;;;21.82;13.13;;;;;;;6.82;85.34;97960.66;4283530;80;21547;-82
2021/11/04 01:50:17;;;;;;;24.18;14.68;;;;;;;6.81;86.05;97968.63;4267346;81;20993;-82
2021/11/04 01:56:18;;;;;;;22.70;13.72;;;;;;;6.87;86.37;97982.88;4265242;81;21522;-82
2021/11/04 02:02:23;;;;;;;20.32;13.15;;;;;;;6.87;86.85;97960.33;4275174;80;21075;-82
2021/11/04 02:08:42;;;;;;;23.67;14.28;;;;;;;6.84;86.84;97949.63;4275177;80;21015;-83
2021/11/04 02:14:48;;;;;;;23.15;14.23;;;;;;;6.79;86.86;97925.48;4356709;80;21020;-83
2021/11/04 02:21:15;;;;;;;19.98;13.58;;;;;;;6.80;87.44;97926.24;4333535;80;21008;-82
2021/11/04 02:27:17;;;;;;;;;;;;;;;6.90;87.51;97923.64;4345843;80;21079;-83
2021/11/04 02:33:25;;;;;;;18.02;11.90;;;;;;;6.90;87.74;97920.91;4266132;81;20334;-83
2021/11/04 02:39:38;;;;;;;22.60;14.28;;;;;;;7.01;87.58;97908.18;4274564;81;21038;-82
2021/11/04 02:45:47;;;;;;;20.05;12.37;;;;;;;7.03;87.73;97891.48;4296014;80;21651;-82
2021/11/04 02:51:59;;;;;;;22.05;13.03;;;;;;;7.05;88.43;97884.48;4237330;82;22179;-83
2021/11/04 02:58:04;;;;;;;18.05;10.03;;;;;;;7.13;88.41;97879.87;4335744;79;21091;-83
2021/11/04 03:04:15;;;;;;;21.05;12.35;;;;;;;7.17;88.89;97874.64;4296072;80;21008;-83
2021/11/04 03:10:22;;;;;;;17.65;12.45;;;;;;;7.20;88.70;97871.77;4303123;80;21515;-82
2021/11/04 03:16:25;;;;;;;19.60;12.40;;;;;;;7.20;88.94;97865.75;4313068;80;21631;-83
2021/11/04 03:22:27;;;;;;;19.52;10.85;;;;;;;7.21;89.01;97844.16;4344388;80;21131;-82
2021/11/04 03:28:28;;;;;;;17.10;12.13;;;;;;;7.25;89.51;97855.84;4361056;80;21021;-82
2021/11/04 03:34:34;;;;;;;21.23;11.85;;;;;;;7.28;89.48;97851.59;4361802;80;21558;-82
2021/11/04 03:40:36;;;;;;;19.85;10.90;;;;;;;7.28;89.53;97846.16;4350136;79;21165;-83
2021/11/04 03:46:42;;;;;;;16.32;11.63;;;;;;;7.28;89.78;97842.83;4359851;80;21107;-82
2021/11/04 03:52:45;;;;;;;17.10;11.22;;;;;;;7.30;90.10;97835.07;4360056;80;21032;-82
2021/11/04 03:58:47;;;;;;;15.83;10.08;;;;;;;7.30;89.76;97843.23;4363454;80;21513;-83
2021/11/04 04:04:55;;;;;;;16.32;10.15;;;;;;;7.29;89.93;97832.73;4365758;80;21485;-84
2021/11/04 04:10:57;;;;;;;15.80;11.00;;;;;;;7.28;91.22;97835.27;4359650;79;21081;-83
2021/11/04 04:16:58;;;;;;;19.17;11.68;;;;;;;7.23;90.84;97820.08;4354507;80;21030;-82
2021/11/04 04:23:00;;;;;;;20.68;12.98;;;;;;;7.20;90.64;97810.52;4354786;80;21062;-83
2021/11/04 04:29:04;;;;;;;16.52;10.95;;;;;;;7.19;90.51;97793.97;4368455;79;21053;-82
2021/11/04 04:35:06;;;;;;;18.55;11.88;;;;;;;7.16;90.95;97792.02;4359176;79;21045;-84
2021/11/04 04:41:09;;;;;;;19.70;11.78;;;;;;;7.20;91.34;97769.70;4357470;80;21034;-82
2021/11/04 04:47:10;;;;;;;16.67;10.90;;;;;;;7.27;91.29;97773.80;4363982;80;21071;-82
2021/11/04 04:53:12;;;;;;;18.73;11.63;;;;;;;7.33;91.88;97781.83;4358677;80;21008;-83
2021/11/04 04:59:13;;;;;;;19.23;10.70;;;;;;;7.41;91.64;97784.75;4359073;79;21033;-82
2021/11/04 05:05:15;;;;;;;16.70;11.40;;;;;;;7.33;91.33;97754.00;4372130;79;21146;-82
2021/11/04 05:11:16;;;;;;;28.67;11.75;;;;;;;7.27;91.65;97741.13;4377080;79;20967;-82
2021/11/04 05:17:18;;;;;;;17.70;9.75;;;;;;;7.26;91.81;97748.55;4371459;79;21667;-82
2021/11/04 05:23:19;;;;;;;15.63;9.80;;;;;;;7.27;92.02;97747.37;4374089;79;21092;-82
2021/11/04 05:29:22;;;;;;;17.98;12.35;;;;;;;7.28;91.88;97749.52;4372040;80;21048;-83
2021/11/04 05:35:23;;;;;;;18.35;11.33;;;;;;;7.25;91.95;97726.55;4358939;79;21038;-83
2021/11/04 05:41:25;;;;;;;17.20;10.25;;;;;;;7.23;91.75;97694.08;4377060;79;21051;-83
2021/11/04 05:47:27;;;;;;;19.57;11.20;;;;;;;7.20;91.61;97681.24;4372764;79;21084;-82
2021/11/04 05:53:28;;;;;;;19.92;11.30;;;;;;;7.19;91.84;97668.20;4367208;79;21034;-83
2021/11/04 05:59:30;;;;;;;15.80;10.10;;;;;;;7.22;92.10;97645.66;4373624;79;21093;-82
2021/11/04 06:05:32;;;;;;;16.77;9.98;;;;;;;7.25;92.37;97638.09;4368782;79;20988;-84
2021/11/04 06:11:33;;;;;;;16.30;9.70;;;;;;;7.30;92.58;97641.80;4365531;80;21010;-83
2021/11/04 06:17:34;;;;;;;16.60;9.48;;;;;;;7.35;92.77;97632.47;4373892;79;21029;-84
2021/11/04 06:23:36;;;;;;;13.68;9.20;;;;;;;7.38;92.74;97626.25;4368922;80;21038;-83
2021/11/04 06:29:37;;;;;;;15.48;9.65;;;;;;;7.45;93.12;97635.81;4370385;79;21039;-83
2021/11/04 06:35:39;;;;;;;14.63;9.05;;;;;;;7.48;93.06;97618.13;4346311;80;21088;-83
2021/11/04 06:41:40;;;;;;;13.88;9.03;;;;;;;7.55;93.15;97627.64;4341130;80;21567;-83
2021/11/04 06:47:52;;;;;;;19.00;9.65;;;;;;;7.58;93.08;97632.92;4342380;79;20951;-82
2021/11/04 06:53:56;;;;;;;19.12;9.55;;;;;;;7.65;93.29;97617.93;4349181;79;21014;-83
2021/11/04 06:59:59;;;;;;;13.88;9.73;;;;;;;7.73;93.59;97610.75;4350933;80;20994;-83
2021/11/04 07:06:11;;;;;;;11.35;7.67;;;;;;;7.77;93.16;97619.69;4238428;81;21559;-83
2021/11/04 07:12:10;;;;;;;15.65;8.65;;;;;;;7.83;93.66;97626.30;4162137;83;21739;-83
2021/11/04 07:18:14;;;;;;;14.83;8.83;;;;;;;7.86;93.51;97629.61;4343118;80;21015;-83
2021/11/04 07:24:36;;;;;;;13.15;8.78;;;;;;;7.94;93.48;97616.75;4348772;80;21083;-82
2021/11/04 07:30:39;;;;;;;14.78;8.40;;;;;;;8.08;94.75;97633.09;4349852;80;20983;-83
2021/11/04 07:36:41;;;;;;;14.15;7.58;;;;;;;8.17;94.17;97625.89;4363990;79;21113;-83
2021/11/04 07:42:43;;;;;;;15.85;9.40;;;;;;;8.21;94.04;97620.63;4240191;81;21709;-82
2021/11/04 07:48:45;;;;;;;14.00;9.73;;;;;;;8.26;94.05;97622.98;4245313;81;21821;-83
2021/11/04 07:54:46;;;;;;;15.32;9.33;;;;;;;8.36;94.21;97609.15;4241155;81;22016;-82
2021/11/04 08:00:48;;;;;;;18.62;10.75;;;;;;;8.44;94.49;97592.36;4236551;81;21019;-82
2021/11/04 08:06:52;;;;;;;19.00;11.08;;;;;;;8.47;94.22;97564.30;4254506;80;21082;-82
2021/11/04 08:12:53;;;;;;;18.75;10.30;;;;;;;8.56;94.45;97550.25;4245103;81;21032;-83
2021/11/04 08:18:54;;;;;;;19.73;10.72;;;;;;;8.69;94.59;97573.20;4251320;81;21019;-82
2021/11/04 08:24:56;;;;;;;20.72;12.60;;;;;;;8.77;94.89;97589.12;4253610;81;21055;-82
2021/11/04 08:30:57;;;;;;;17.25;11.33;;;;;;;8.88;94.66;97563.17;4236919;81;21050;-82
2021/11/04 08:36:58;;;;;;;18.45;9.60;;;;;;;9.05;94.97;97552.75;4252365;80;21020;-82
2021/11/04 08:43:02;;;;;;;20.23;10.13;;;;;;;9.19;94.82;97518.53;4236195;81;21086;-82
2021/11/04 08:49:04;;;;;;;24.30;11.53;;;;;;;9.38;94.95;97528.32;4233376;81;21015;-81
2021/11/04 08:55:08;;;;;;;21.82;10.58;;;;;;;9.62;95.20;97506.66;4233275;81;21089;-82
2021/11/04 09:01:11;;;;;;;19.07;11.15;;;;;;;10.12;95.72;97483.94;4240187;81;21014;-83
2021/11/04 09:07:16;;;;;;;16.52;8.60;;;;;;;10.81;95.30;97473.29;4247435;81;21047;-83
2021/11/04 09:13:17;;;;;;;14.98;7.22;;;;;;;11.21;94.86;97483.86;4247709;81;21031;-82
2021/11/04 09:19:19;;;;;;;12.28;5.70;;;;;;;11.41;94.57;97515.44;4232675;81;21060;-84
2021/11/04 09:25:23;;;;;;;10.30;5.67;;;;;;;11.64;94.39;97490.22;4233218;81;21001;-83
2021/11/04 09:31:25;;;;;;;7.05;5.08;;;;;;;12.01;94.20;97484.45;4223178;81;21955;-83
2021/11/04 09:43:47;;;;;;;5.95;4.50;;;;;;;13.34;92.88;97462.98;4227072;81;21058;-83
2021/11/04 09:49:56;;;;;;;7.17;3.72;;;;;;;14.16;92.02;97461.07;4249568;81;21079;-83
2021/11/04 09:56:00;;;;;;;8.15;3.98;;;;;;;14.62;90.93;97461.18;4256087;81;21110;-83
2021/11/04 10:02:05;;;;;;;7.08;3.98;;;;;;;14.64;89.77;97443.62;4241391;81;21112;-83
2021/11/04 10:08:09;;;;;;;7.95;4.53;;;;;;;15.22;89.60;97442.97;4208871;81;21662;-83
2021/11/04 10:14:15;;;;;;;6.83;4.25;;;;;;;15.58;88.27;97467.46;4246615;81;21039;-83
2021/11/04 10:20:27;;;;;;;5.25;3.60;;;;;;;15.68;87.37;97485.03;4226599;81;21571;-82
2021/11/04 10:26:33;;;;;;;7.47;3.65;;;;;;;15.77;86.74;97489.10;4262198;81;21709;-83
2021/11/04 10:32:38;;;;;;;6.92;4.20;;;;;;;15.71;85.92;97470.95;4207664;81;20995;-83
2021/11/04 10:38:47;;;;;;;5.80;3.15;;;;;;;15.57;84.95;97458.41;4241480;81;21064;-84
2021/11/04 10:44:49;;;;;;;6.22;3.45;;;;;;;15.45;84.44;97448.17;4234575;81;21821;-83
2021/11/04 10:50:50;;;;;;;4.47;2.83;;;;;;;15.35;83.72;97474.06;4237599;81;21122;-82
2021/11/04 10:56:54;;;;;;;7.12;3.10;;;;;;;15.33;78.31;97479.87;4241781;81;20984;-84
2021/11/04 11:03:10;;;;;;;5.65;3.22;;;;;;;15.37;77.94;97466.12;4234008;81;21078;-83
2021/11/04 11:09:17;;;;;;;5.17;3.07;;;;;;;15.42;78.66;97431.14;4246633;81;21168;-84
2021/11/04 11:15:25;;;;;;;6.22;3.33;;;;;;;15.45;78.55;97430.85;4244992;81;21079;-84
2021/11/04 11:21:33;;;;;;;4.58;2.67;;;;;;;15.43;77.17;97450.59;4235805;81;21522;-83
2021/11/04 11:27:36;;;;;;;8.63;3.27;;;;;;;15.39;77.71;97445.78;4236372;83;21517;-83
2021/11/04 11:33:45;;;;;;;7.03;3.15;;;;;;;15.33;77.88;97466.08;4215492;83;21047;-82
2021/11/04 11:40:09;;;;;;;3.95;2.47;;;;;;;15.37;78.12;97465.34;4234049;80;21041;-82
2021/11/04 11:46:14;;;;;;;7.20;3.00;;;;;;;15.53;77.66;97471.52;4236160;82;21130;-83
2021/11/04 11:52:53;;;;;;;5.25;2.65;;;;;;;15.68;77.76;97466.32;4240140;82;21013;-82
2021/11/04 11:59:17;;;;;;;6.15;2.77;;;;;;;15.74;77.82;97454.13;4348909;79;21019;-83
2021/11/04 12:05:36;;;;;;;3.95;2.27;;;;;;;15.78;77.80;97452.79;4239918;82;21047;-83
2021/11/04 12:11:47;;;;;;;7.12;3.05;;;;;;;15.81;77.84;97471.81;4194118;83;21120;-83
2021/11/04 12:18:18;;;;;;;6.33;3.10;;;;;;;15.92;74.40;97471.63;4371536;79;21054;-83
2021/11/04 12:24:20;;;;;;;6.97;2.80;;;;;;;16.00;75.35;97456.96;4266939;81;21031;-83
2021/11/04 12:30:25;;;;;;;6.83;2.40;;;;;;;16.18;74.15;97477.20;4271188;81;21068;-84
2021/11/04 12:43:12;;;;;;;3.10;0.60;;;;;;;17.13;71.63;97472.33;4194581;83;21140;-85
2021/11/04 12:49:16;;;;;;;1.65;0.50;;;;;;;17.71;69.72;97493.89;4226864;82;21039;-84
2021/11/04 12:55:23;;;;;;;1.35;0.60;;;;;;;17.77;68.57;97493.47;4211728;82;21042;-85
2021/11/04 13:01:24;;;;;;;1.05;0.70;;;;;;;17.80;67.51;97509.16;4229292;83;21052;-84
2021/11/04 13:07:31;;;;;;;3.55;0.65;;;;;;;17.85;67.28;97518.84;4221768;82;21055;-81
2021/11/04 13:13:38;;;;;;;2.53;0.73;;;;;;;18.04;64.26;97519.80;4221275;82;21052;-83
2021/11/04 13:19:41;;;;;;;;;;;;;;;18.16;62.26;97518.91;4227248;82;21031;-84
2021/11/04 13:25:49;;;;;;;4.65;1.17;;;;;;;18.11;61.03;97533.36;4218253;82;21098;-83
2021/11/04 13:31:51;;;;;;;3.95;0.72;;;;;;;18.00;61.96;97552.41;4212980;82;21706;-83
2021/11/04 13:38:16;;;;;;;5.78;0.78;;;;;;;17.77;60.59;97592.33;4210773;82;21012;-84
2021/11/04 13:44:22;;;;;;;1.12;0.35;;;;;;;17.47;59.32;97591.72;4352328;79;21007;-84
2021/11/04 13:50:35;;;;;;;0.90;0.50;;;;;;;17.40;55.00;97603.80;4360919;80;21026;-86
2021/11/04 13:56:37;;;;;;;1.30;0.75;;;;;;;17.25;55.76;97613.86;4262977;82;21050;-86
2021/11/04 14:02:44;;;;;;;2.72;1.22;;;;;;;17.30;53.28;97634.03;4235039;81;21090;-86
2021/11/04 14:08:57;;;;;;;3.43;0.97;;;;;;;17.19;54.31;97621.20;4241584;81;21114;-84
2021/11/04 14:15:21;;;;;;;3.10;1.00;;;;;;;16.91;54.51;97643.72;4257293;82;20999;-86
2021/11/04 14:21:26;;;;;;;5.08;2.45;;;;;;;16.67;56.16;97662.55;4256728;81;21078;-83
2021/11/04 14:27:33;;;;;;;3.62;2.15;;;;;;;16.30;57.75;97708.95;4364522;80;21080;-85
2021/11/04 14:33:35;;;;;;;7.25;2.60;;;;;;;15.77;59.88;97742.30;4361549;79;20995;-84
2021/11/04 14:39:38;;;;;;;3.33;2.30;;;;;;;15.14;61.16;97755.86;4361393;79;21066;-83
2021/11/04 14:45:40;;;;;;;4.53;2.65;;;;;;;14.65;62.52;97772.30;4362589;80;21519;-83
2021/11/04 14:51:41;;;;;;;11.88;3.45;;;;;;;14.23;63.67;97789.00;4364700;79;22338;-83
2021/11/04 14:57:43;;;;;;;17.82;6.78;;;;;;;13.88;64.60;97801.55;4345378;79;21590;-83
2021/11/04 15:03:44;;;;;;;5.45;3.45;;;;;;;13.63;65.32;97809.53;4368005;79;21432;-84
2021/11/04 15:09:46;;;;;;;9.00;5.10;;;;;;;13.37;65.71;97812.59;4361413;80;21019;-83
2021/11/04 15:15:49;;;;;;;22.75;8.20;;;;;;;13.15;66.25;97825.17;4367249;80;21067;-83
2021/11/04 15:21:50;;;;;;;7.53;4.12;;;;;;;12.93;66.73;97845.14;4362450;79;21053;-83
2021/11/04 15:27:52;;;;;;;8.18;3.50;;;;;;;12.70;67.31;97845.13;4370776;80;21030;-83
2021/11/04 15:33:54;;;;;;;6.10;3.35;;;;;;;12.57;67.65;97858.66;4374033;80;21046;-83
2021/11/04 15:39:55;;;;;;;7.97;4.33;;;;;;;12.41;68.09;97873.00;4369754;80;21032;-84
2021/11/04 15:45:57;;;;;;;9.60;4.67;;;;;;;12.25;68.54;97887.91;4372015;80;21587;-84
2021/11/04 15:51:59;;;;;;;9.83;4.67;;;;;;;12.15;68.87;97893.55;4374918;79;21046;-83
2021/11/04 15:58:03;;;;;;;9.43;4.35;;;;;;;12.08;69.37;97902.64;4377136;80;21052;-84
2021/11/04 16:04:07;;;;;;;10.28;4.53;;;;;;;12.00;69.59;97924.47;4378481;79;21117;-83
2021/11/04 16:10:09;;;;;;;11.18;5.10;;;;;;;11.99;70.00;97934.48;4370996;79;21013;-84
2021/11/04 16:16:12;;;;;;;10.90;5.05;;;;;;;11.98;70.28;97937.81;4375862;80;21057;-85
2021/11/04 16:22:15;;;;;;;12.47;6.05;;;;;;;11.93;70.57;97951.20;4375200;80;21024;-84
2021/11/04 16:28:17;;;;;;;8.48;4.87;;;;;;;11.90;70.56;97957.51;4374651;79;21519;-84
2021/11/04 16:34:19;;;;;;;7.65;3.35;;;;;;;12.02;70.65;97959.72;4378495;79;21014;-84
2021/11/04 16:40:40;;;;;;;;;;;;;;;;;;;;;
2021/11/04 16:46:34;;;;;;;3.77;1.60;;;;;;;11.93;70.73;98004.69;4364525;79;20997;-84
2021/11/04 16:52:40;;;;;;;5.65;2.85;;;;;;;11.90;70.40;98035.67;4371364;79;21040;-85
2021/11/04 16:58:43;;;;;;;13.48;5.28;;;;;;;11.82;70.06;98059.64;4378454;79;21050;-83
2021/11/04 17:04:53;;;;;;;14.20;5.90;;;;;;;11.68;69.93;98063.84;4368281;79;21013;-85
2021/11/04 17:11:07;;;;;;;12.15;5.58;;;;;;;11.43;69.70;98068.73;4374709;79;21148;-84
2021/11/04 17:17:14;;;;;;;6.93;3.47;;;;;;;11.13;69.99;98088.46;4371210;79;21038;-83
2021/11/04 17:23:20;;;;;;;12.53;5.60;;;;;;;10.97;69.95;98096.39;4332725;80;21155;-84
2021/11/04 17:29:34;;;;;;;45.83;22.42;;;;;;;10.69;70.22;98121.15;4336870;79;21969;-84
2021/11/04 17:35:41;;;;;;;14.87;6.80;;;;;;;10.33;70.50;98129.25;4368825;80;21154;-82
2021/11/04 17:41:44;;;;;;;16.05;6.28;;;;;;;10.08;70.60;98137.28;4333517;79;21065;-83
2021/11/04 17:47:48;;;;;;;8.43;5.03;;;;;;;9.96;71.26;98137.66;4370195;80;21048;-83
2021/11/04 17:54:04;;;;;;;11.33;4.93;;;;;;;9.69;71.33;98156.97;4381708;79;21049;-84
2021/11/04 18:00:12;;;;;;;13.75;5.53;;;;;;;9.59;71.59;98146.22;4368615;79;21021;-83
2021/11/04 18:06:14;;;;;;;12.45;7.25;;;;;;;9.43;73.27;98183.45;4372863;80;21100;-83
2021/11/04 18:12:21;;;;;;;12.82;5.80;;;;;;;9.23;72.24;98174.04;4376628;80;21030;-82
2021/11/04 18:18:27;;;;;;;18.67;8.73;;;;;;;9.10;72.59;98175.55;4373629;80;21501;-84
2021/11/04 18:24:31;;;;;;;35.07;20.23;;;;;;;8.87;73.13;98171.55;4376422;79;21006;-83
2021/11/04 18:30:35;;;;;;;33.35;16.48;;;;;;;8.73;73.02;98175.56;4368692;79;21010;-83
2021/11/04 18:36:40;;;;;;;26.73;11.70;;;;;;;8.65;73.38;98184.30;4371153;80;22079;-83
2021/11/04 18:42:45;;;;;;;29.23;11.68;;;;;;;8.64;73.34;98182.75;4336348;79;21067;-83
2021/11/04 18:48:48;;;;;;;23.35;10.65;;;;;;;8.52;73.67;98198.05;4369367;79;22005;-82
2021/11/04 18:54:50;;;;;;;26.42;13.20;;;;;;;8.48;73.98;98226.47;4374202;79;21712;-83
2021/11/04 19:00:52;;;;;;;21.77;11.75;;;;;;;8.46;73.69;98239.69;4365254;79;21090;-84
2021/11/04 19:06:55;;;;;;;30.45;15.88;;;;;;;8.51;73.86;98252.98;4377710;79;21762;-84
2021/11/04 19:12:58;;;;;;;28.77;14.18;;;;;;;8.54;73.32;98259.84;4241486;81;21115;-83
2021/11/04 19:19:04;;;;;;;21.87;10.60;;;;;;;8.50;73.56;98272.67;4250490;81;20996;-83
2021/11/04 19:25:07;;;;;;;22.13;10.50;;;;;;;8.39;73.34;98280.56;4361301;80;21008;-84
2021/11/04 19:31:09;;;;;;;15.28;5.80;;;;;;;8.42;72.96;98289.35;4365667;79;21089;-84
2021/11/04 19:37:13;;;;;;;9.45;4.12;;;;;;;8.50;72.46;98295.07;4352606;80;20968;-85
2021/11/04 19:43:16;;;;;;;5.87;2.98;;;;;;;8.82;70.51;98290.05;4367402;79;21025;-84
2021/11/04 19:49:25;;;;;;;8.28;3.70;;;;;;;9.10;70.16;98290.79;4361658;79;21067;-84
2021/11/04 19:55:29;;;;;;;8.05;3.67;;;;;;;9.34;67.97;98296.41;4377469;79;21035;-85
2021/11/04 20:01:31;;;;;;;9.50;4.40;;;;;;;9.58;67.62;98311.34;4375687;79;21047;-85
2021/11/04 20:07:33;;;;;;;10.75;4.80;;;;;;;9.72;66.29;98302.40;4372104;79;21059;-85
2021/11/04 20:13:36;;;;;;;11.80;6.05;;;;;;;9.69;65.37;98295.77;4369440;79;21051;-82
2021/11/04 20:19:39;;;;;;;13.98;6.67;;;;;;;9.70;66.30;98303.36;4372143;79;21619;-82
2021/11/04 20:25:43;;;;;;;14.87;6.58;;;;;;;9.56;66.17;98320.50;4375079;79;21055;-82
2021/11/04 20:31:48;;;;;;;17.20;8.30;;;;;;;9.31;66.69;98333.25;4369242;79;21074;-82
2021/11/04 20:37:59;;;;;;;16.30;6.35;;;;;;;8.99;67.47;98352.16;4374369;80;21147;-82
2021/11/04 20:44:03;;;;;;;15.93;6.33;;;;;;;8.60;67.18;98345.62;4375368;79;21030;-82
2021/11/04 20:50:09;;;;;;;12.82;7.08;;;;;;;8.16;68.25;98372.64;4377175;79;21008;-83
2021/11/04 20:56:13;;;;;;;13.03;6.08;;;;;;;7.90;68.22;98383.05;4347967;79;21074;-82
2021/11/04 21:02:16;;;;;;;19.52;6.95;;;;;;;7.71;68.41;98384.56;4376990;79;21081;-83
2021/11/04 21:08:20;;;;;;;22.13;8.43;;;;;;;7.62;69.39;98399.84;4362561;79;21116;-83
2021/11/04 21:14:23;;;;;;;14.03;5.55;;;;;;;7.53;69.35;98403.98;4367702;79;21013;-84
2021/11/04 21:20:25;;;;;;;9.53;4.95;;;;;;;7.54;69.48;98413.72;4379576;79;21564;-83
2021/11/04 21:26:29;;;;;;;10.15;4.67;;;;;;;7.72;69.26;98434.59;4373047;79;21082;-83
2021/11/04 21:32:30;;;;;;;14.68;5.78;;;;;;;7.92;69.15;98448.28;4365128;80;21585;-83
2021/11/04 21:38:32;;;;;;;9.98;3.83;;;;;;;7.77;69.53;98437.00;4377549;79;21056;-83
2021/11/04 21:44:34;;;;;;;10.43;3.95;;;;;;;7.65;70.08;98450.86;4378858;79;21078;-83
2021/11/04 21:50:35;;;;;;;6.85;3.20;;;;;;;7.62;70.69;98452.16;4370638;80;21266;-83
2021/11/04 21:56:37;;;;;;;7.72;3.05;;;;;;;7.61;71.03;98464.98;4365244;79;21554;-84
2021/11/04 22:02:42;;;;;;;4.67;2.80;;;;;;;7.69;70.92;98486.30;4375981;79;21040;-83
2021/11/04 22:08:49;;;;;;;6.25;3.12;;;;;;;7.71;70.97;98502.51;4373811;79;21080;-82
2021/11/04 22:14:48;;;;;;;7.40;3.20;;;;;;;7.61;71.66;98515.38;4375250;79;20994;-82
2021/11/04 22:20:50;;;;;;;7.55;3.05;;;;;;;7.52;71.54;98521.67;4371033;79;21114;-83
2021/11/04 22:27:50;;;;;;;4.72;2.40;;;;;;;7.40;72.08;98546.39;4377164;80;20984;-84
2021/11/04 22:33:26;;;;;;;4.10;1.60;;;;;;;7.41;72.17;98545.23;4346329;80;21107;-83
2021/11/04 22:39:28;;;;;;;5.40;2.05;;;;;;;7.44;72.33;98549.14;4350588;80;21079;-83
2021/11/04 22:45:29;;;;;;;5.92;2.05;;;;;;;7.56;71.95;98555.78;4353708;80;21336;-84
2021/11/04 22:51:31;;;;;;;3.17;1.77;;;;;;;7.63;71.73;98566.77;4360474;80;21595;-83
2021/11/04 22:57:41;;;;;;;5.83;2.15;;;;;;;7.68;71.46;98578.73;4220635;82;22035;-83
2021/11/04 23:03:54;;;;;;;3.55;0.72;;;;;;;7.84;70.59;98578.02;4235595;81;21082;-83
2021/11/04 23:10:17;;;;;;;4.58;1.82;;;;;;;8.02;70.22;98579.64;4231402;82;21240;-85
2021/11/04 23:16:21;;;;;;;2.00;0.93;;;;;;;7.98;69.96;98593.22;4204441;81;21035;-83
2021/11/04 23:22:23;;;;;;;4.17;1.17;;;;;;;7.91;70.00;98606.16;4269334;81;21075;-83
2021/11/04 23:28:26;;;;;;;5.12;1.20;;;;;;;7.97;69.80;98621.63;4265797;82;21027;-82
2021/11/04 23:34:41;;;;;;;2.85;1.30;;;;;;;7.94;69.71;98618.25;4235436;81;21063;-82
2021/11/04 23:40:46;;;;;;;8.05;2.27;;;;;;;7.97;69.58;98616.18;4258441;81;21086;-82
2021/11/04 23:47:07;;;;;;;2.95;1.10;;;;;;;7.93;69.50;98618.05;4239046;82;21665;-83
2021/11/04 23:53:17;;;;;;;1.30;0.95;;;;;;;7.83;69.52;98615.37;4241740;82;21021;-84
2021/11/04 23:59:25;;;;;;;1.33;0.80;;;;;;;7.74;69.48;98611.32;4249436;82;21024;-82
